Startpagina
METAR-TAF:

METAR-TAF

Vliegvelden :

Caïro, Egypte

Luchthaven Caïro Internationaal

breedte: 30-08N, lengte: 031-24E, hoogte: 64 m

Actueel weer

Dit bericht is 39 minuten geleden gemaakt, om 19:00 UTC
Wind 13 kt uit het noorden
Temperatuur 18°C
Vochtigheid 52%
Druk 1020 hPa
Zicht 10 km of meer
geen wolken onder 1500 m en geen cumulonimbus

METAR: HECA 231900Z 01013KT CAVOK 18/08 Q1020 NOSIG

Tijdstip: 21:39 (19:39 UTC)

Verwachting

Dit bericht is 2 uur en het 39 minuten geleden gemaakt, om 17:00 UTC
Verwachting geldig van 23 om 18 UTC tot 24 om 24 UTC
Wind 12 kt uit het noorden
Zicht 10 km of meer
geen wolken onder 1500 m en geen cumulonimbus

TAF: HECA 231700Z 2318/2424 36012KT CAVOK

Waarnemingen en weersverwachtingen van meer dan 4000 vliegvelden (METAR en TAF).

De beschikbare stations zijn de gele en rode punten op de kaart.

Ga met uw muis naar het station om de naam te zien.

Klik dan om waarnemingen en weersverwachtingen te zien.

kaart wijzigen: klik op de groene knoppen met een zwart kruis om in te zoomen, op de groene knop met een streepje om uit te zoomen of op de groene pijlen voor aangrenzende kaarten.


METAR-TAF: